createdAt,value
2018-07-03T00:00:27.176Z,16.90
2018-07-03T00:02:56.232Z,16.90
2018-07-03T00:05:25.268Z,16.90
2018-07-03T00:07:54.685Z,16.90
2018-07-03T00:10:30.123Z,16.90
2018-07-03T00:12:59.171Z,16.90
2018-07-03T00:15:29.647Z,16.90
2018-07-03T00:17:58.975Z,16.90
2018-07-03T00:20:28.022Z,16.80
2018-07-03T00:22:57.049Z,16.90
2018-07-03T00:25:26.062Z,16.90
2018-07-03T00:27:55.099Z,17.00
2018-07-03T00:30:24.140Z,16.90
2018-07-03T00:32:53.315Z,16.80
2018-07-03T00:35:22.379Z,16.80
2018-07-03T00:37:51.615Z,16.80
2018-07-03T00:40:20.711Z,16.80
2018-07-03T00:42:49.739Z,16.70
2018-07-03T00:45:18.791Z,16.70
2018-07-03T00:47:47.857Z,16.70
2018-07-03T00:50:16.928Z,16.70
2018-07-03T00:52:48.691Z,16.60
2018-07-03T00:55:18.196Z,16.80
2018-07-03T00:57:47.239Z,16.70
2018-07-03T01:00:27.463Z,16.70
2018-07-03T01:02:56.512Z,16.80
2018-07-03T01:05:25.569Z,16.80
2018-07-03T01:07:54.595Z,16.80
2018-07-03T01:10:23.647Z,16.80
2018-07-03T01:12:53.096Z,16.80
2018-07-03T01:15:22.343Z,16.90
2018-07-03T01:17:51.401Z,16.90
2018-07-03T01:20:21.159Z,17.00
2018-07-03T01:22:50.478Z,16.90
2018-07-03T01:25:19.543Z,17.00
2018-07-03T01:27:48.551Z,17.00
2018-07-03T01:30:17.579Z,17.00
2018-07-03T01:32:46.639Z,17.00
2018-07-03T01:35:15.676Z,17.00
2018-07-03T01:37:44.694Z,17.00
2018-07-03T01:40:13.716Z,16.80
2018-07-03T01:42:42.733Z,16.80
2018-07-03T01:45:11.794Z,16.80
2018-07-03T01:47:40.811Z,16.90
2018-07-03T01:50:09.836Z,17.00
2018-07-03T01:52:38.844Z,16.80
2018-07-03T01:55:07.921Z,16.80
2018-07-03T01:57:36.934Z,16.80
2018-07-03T02:00:06.411Z,16.80
2018-07-03T02:02:35.427Z,15.20
2018-07-03T02:07:33.092Z,16.80
2018-07-03T02:10:02.249Z,16.70
2018-07-03T02:14:59.886Z,16.50
2018-07-03T02:17:28.887Z,16.50
2018-07-03T02:19:57.903Z,16.50
2018-07-03T02:22:26.932Z,16.50
2018-07-03T02:24:55.939Z,16.50
2018-07-03T02:27:24.956Z,16.60
2018-07-03T02:29:53.976Z,16.60
2018-07-03T02:34:51.637Z,16.50
2018-07-03T02:37:20.651Z,16.60
2018-07-03T02:39:49.712Z,16.50
2018-07-03T02:42:18.761Z,16.50
2018-07-03T02:44:47.779Z,16.50
2018-07-03T02:47:16.809Z,16.40
2018-07-03T02:49:45.804Z,16.40
2018-07-03T02:52:14.843Z,16.40
2018-07-03T02:57:12.492Z,16.40
2018-07-03T02:59:41.866Z,16.30
2018-07-03T03:02:10.882Z,16.20
2018-07-03T03:04:39.901Z,16.10
2018-07-03T03:07:08.944Z,16.10
2018-07-03T03:09:37.973Z,16.00
2018-07-03T03:12:07.038Z,16.10
2018-07-03T03:14:36.085Z,16.00
2018-07-03T03:17:05.112Z,16.10
2018-07-03T03:19:34.134Z,16.10
2018-07-03T03:22:03.183Z,16.10
2018-07-03T03:24:32.831Z,16.10
2018-07-03T03:32:00.084Z,16.10
2018-07-03T03:34:29.097Z,16.10
2018-07-03T03:36:58.172Z,16.00
2018-07-03T03:39:27.183Z,15.90
2018-07-03T03:41:56.216Z,15.80
2018-07-03T03:44:25.237Z,15.80
2018-07-03T03:49:22.843Z,15.80
2018-07-03T03:51:51.884Z,15.80
2018-07-03T03:54:20.879Z,15.90
2018-07-03T03:56:49.881Z,15.90
2018-07-03T03:59:18.947Z,15.90
2018-07-03T04:01:47.979Z,15.80
2018-07-03T04:04:17.299Z,15.70
2018-07-03T04:06:46.343Z,15.70
2018-07-03T04:09:15.426Z,15.70
2018-07-03T04:11:44.461Z,15.80
2018-07-03T04:14:14.011Z,15.80
2018-07-03T04:16:43.015Z,15.90
2018-07-03T04:19:12.055Z,15.90
2018-07-03T04:21:41.112Z,15.80
2018-07-03T04:24:10.128Z,15.90
2018-07-03T04:26:39.221Z,15.80
2018-07-03T04:29:08.311Z,15.80
2018-07-03T04:31:37.741Z,15.90
2018-07-03T04:34:06.834Z,15.80
2018-07-03T04:39:07.911Z,16.00
2018-07-03T04:41:37.341Z,16.00
2018-07-03T04:44:06.638Z,16.00
2018-07-03T04:49:04.420Z,16.10
2018-07-03T04:51:33.449Z,16.20
2018-07-03T04:54:02.541Z,16.20
2018-07-03T04:56:31.575Z,16.30
2018-07-03T04:59:00.588Z,16.40
2018-07-03T05:01:29.600Z,16.50
2018-07-03T05:03:58.700Z,16.60
2018-07-03T05:11:25.721Z,16.80
2018-07-03T05:13:54.744Z,17.00
2018-07-03T05:16:23.792Z,16.90
2018-07-03T05:18:52.845Z,17.00
2018-07-03T05:21:21.860Z,17.10
2018-07-03T05:23:50.859Z,17.30
2018-07-03T05:26:19.884Z,17.20
2018-07-03T05:28:49.108Z,17.40
2018-07-03T05:31:18.153Z,17.60
2018-07-03T05:33:47.146Z,17.70
2018-07-03T05:36:16.179Z,17.80
2018-07-03T05:38:45.191Z,17.80
2018-07-03T05:41:14.219Z,17.90
2018-07-03T05:43:43.238Z,18.00
2018-07-03T05:46:12.295Z,18.20
2018-07-03T05:48:41.348Z,18.30
2018-07-03T05:51:10.415Z,18.70
2018-07-03T05:53:39.561Z,18.40
2018-07-03T05:56:08.863Z,18.80
2018-07-03T05:58:37.959Z,18.90
2018-07-03T06:01:07.004Z,18.80
2018-07-03T06:03:36.089Z,18.80
2018-07-03T06:06:05.179Z,19.10
2018-07-03T06:08:34.251Z,19.50
2018-07-03T06:11:03.486Z,19.40
2018-07-03T06:13:32.748Z,19.40
2018-07-03T06:16:01.800Z,19.90
2018-07-03T06:18:30.831Z,20.20
2018-07-03T06:20:59.979Z,20.20
2018-07-03T06:23:29.016Z,20.60
2018-07-03T06:25:58.064Z,21.00
2018-07-03T06:28:27.083Z,20.90
2018-07-03T06:30:56.156Z,21.20
2018-07-03T06:35:53.757Z,21.10
2018-07-03T06:38:22.919Z,21.10
2018-07-03T06:40:51.983Z,21.70
2018-07-03T06:43:21.048Z,22.00
2018-07-03T06:45:50.097Z,22.10
2018-07-03T06:48:19.135Z,22.20
2018-07-03T06:50:48.124Z,22.20
2018-07-03T06:53:17.164Z,22.50
2018-07-03T06:58:14.820Z,22.40
2018-07-03T07:00:43.833Z,22.30
2018-07-03T07:03:12.984Z,22.30
2018-07-03T07:05:42.012Z,22.80
2018-07-03T07:08:11.044Z,22.90
2018-07-03T07:10:40.204Z,23.00
2018-07-03T07:13:09.216Z,23.10
2018-07-03T07:15:38.290Z,23.50
2018-07-03T07:18:07.385Z,23.60
2018-07-03T07:20:36.421Z,23.50
2018-07-03T07:23:05.828Z,23.30
2018-07-03T07:25:35.383Z,23.40
2018-07-03T07:28:04.557Z,23.80
2018-07-03T07:33:02.398Z,24.10
2018-07-03T07:35:31.442Z,23.40
2018-07-03T07:38:00.845Z,22.80
2018-07-03T07:40:29.862Z,22.50
2018-07-03T07:43:00.530Z,23.00
2018-07-03T07:45:29.584Z,23.80
2018-07-03T07:48:05.412Z,24.00
2018-07-03T07:50:34.642Z,23.60
2018-07-03T07:53:03.685Z,24.00
2018-07-03T07:55:32.936Z,24.30
2018-07-03T07:58:01.960Z,24.50
2018-07-03T08:00:31.060Z,24.40
2018-07-03T08:03:00.098Z,24.70
2018-07-03T08:05:29.163Z,25.50
2018-07-03T08:07:58.398Z,25.70
2018-07-03T08:10:27.455Z,25.90
2018-07-03T08:12:56.540Z,26.20
2018-07-03T08:15:25.604Z,26.20
2018-07-03T08:17:54.642Z,26.10
2018-07-03T08:20:23.655Z,25.90
2018-07-03T08:22:53.472Z,25.80
2018-07-03T08:27:51.152Z,26.10
2018-07-03T08:30:20.183Z,26.10
2018-07-03T08:32:50.211Z,26.70
2018-07-03T08:35:19.443Z,26.30
2018-07-03T08:37:48.889Z,26.30
2018-07-03T08:40:17.843Z,26.80
2018-07-03T08:42:47.136Z,26.40
2018-07-03T08:45:16.143Z,26.60
2018-07-03T08:47:45.215Z,26.70
2018-07-03T08:50:14.276Z,27.80
2018-07-03T08:52:43.367Z,28.40
2018-07-03T08:55:12.486Z,27.90
2018-07-03T08:57:41.578Z,27.30
2018-07-03T09:00:10.709Z,27.20
2018-07-03T09:02:39.849Z,27.30
2018-07-03T09:05:08.863Z,27.80
2018-07-03T09:07:38.147Z,27.80
2018-07-03T09:12:35.934Z,28.10
2018-07-03T09:15:05.436Z,29.00
2018-07-03T09:17:34.526Z,29.00
2018-07-03T09:20:03.588Z,28.90
2018-07-03T09:22:32.964Z,28.20
2018-07-03T09:25:02.248Z,27.90
2018-07-03T09:27:31.284Z,28.10
2018-07-03T09:30:00.336Z,28.20
2018-07-03T09:32:29.453Z,28.40
2018-07-03T09:34:58.471Z,28.80
2018-07-03T09:37:27.534Z,29.00
2018-07-03T09:39:56.571Z,29.00
2018-07-03T09:42:25.605Z,28.70
2018-07-03T09:44:54.904Z,28.50
2018-07-03T09:47:23.892Z,29.00
2018-07-03T09:49:52.911Z,29.50
2018-07-03T09:52:21.931Z,29.10
2018-07-03T09:54:51.971Z,29.70
2018-07-03T09:57:20.966Z,29.50
2018-07-03T09:59:50.071Z,30.00
2018-07-03T10:02:19.397Z,29.80
2018-07-03T10:07:17.081Z,30.60
2018-07-03T10:12:14.699Z,30.50
2018-07-03T10:14:43.751Z,31.20
2018-07-03T10:19:43.426Z,30.50
2018-07-03T10:22:12.437Z,30.50
2018-07-03T10:24:41.466Z,29.60
2018-07-03T10:27:10.523Z,29.40
2018-07-03T10:32:08.269Z,29.90
2018-07-03T10:34:37.279Z,29.30
2018-07-03T10:37:06.299Z,30.00
2018-07-03T10:39:35.336Z,30.90
2018-07-03T10:42:04.379Z,31.70
2018-07-03T10:44:33.411Z,31.10
2018-07-03T10:47:02.420Z,30.90
2018-07-03T10:49:31.821Z,30.60
2018-07-03T10:52:00.854Z,31.20
2018-07-03T10:54:29.956Z,31.40
2018-07-03T10:56:58.988Z,31.20
2018-07-03T10:59:28.093Z,31.20
2018-07-03T11:01:57.124Z,30.70
2018-07-03T11:06:54.840Z,30.40
2018-07-03T11:09:24.080Z,30.90
2018-07-03T11:14:21.693Z,31.40
2018-07-03T11:16:50.964Z,31.80
2018-07-03T11:19:20.020Z,31.70
2018-07-03T11:21:49.309Z,31.60
2018-07-03T11:24:18.888Z,32.60
2018-07-03T11:26:47.961Z,33.70
2018-07-03T11:29:17.552Z,32.80
2018-07-03T11:31:46.640Z,31.30
2018-07-03T11:34:15.824Z,31.70
2018-07-03T11:36:44.932Z,31.70
2018-07-03T11:39:13.986Z,32.30
2018-07-03T11:41:43.055Z,32.20
2018-07-03T11:46:40.835Z,31.80
2018-07-03T11:49:09.862Z,31.70
2018-07-03T11:51:38.940Z,31.80
2018-07-03T11:54:11.051Z,31.90
2018-07-03T11:56:40.364Z,32.60
2018-07-03T11:59:09.506Z,33.10
2018-07-03T12:01:38.654Z,31.90
2018-07-03T12:04:07.603Z,31.90
2018-07-03T12:06:36.677Z,33.10
2018-07-03T12:09:08.107Z,33.00
2018-07-03T12:11:37.183Z,32.80
2018-07-03T12:14:07.243Z,32.60
2018-07-03T12:16:36.279Z,32.50
2018-07-03T12:21:34.356Z,32.20
2018-07-03T12:24:03.455Z,32.70
2018-07-03T12:26:32.539Z,33.80
2018-07-03T12:29:01.620Z,32.80
2018-07-03T12:31:30.830Z,32.30
2018-07-03T12:33:59.857Z,32.00
2018-07-03T12:36:29.012Z,32.50
2018-07-03T12:38:58.018Z,32.60
2018-07-03T12:41:27.071Z,33.80
2018-07-03T12:43:56.127Z,33.70
2018-07-03T12:46:25.165Z,33.20
2018-07-03T12:48:55.166Z,32.20
2018-07-03T12:51:24.171Z,32.20
2018-07-03T12:53:53.316Z,32.40
2018-07-03T12:56:22.408Z,32.00
2018-07-03T12:58:51.858Z,32.20
2018-07-03T13:01:20.859Z,32.10
2018-07-03T13:03:49.954Z,31.70
2018-07-03T13:06:19.024Z,32.10
2018-07-03T13:11:16.739Z,31.10
2018-07-03T13:13:45.801Z,31.60
2018-07-03T13:16:14.836Z,31.90
2018-07-03T13:18:43.879Z,31.50
2018-07-03T13:21:12.926Z,31.90
2018-07-03T13:23:41.979Z,31.40
2018-07-03T13:28:39.684Z,31.00
2018-07-03T13:31:08.739Z,31.00
2018-07-03T13:33:37.756Z,30.90
2018-07-03T13:36:06.834Z,30.40
2018-07-03T13:38:35.915Z,30.40
2018-07-03T13:41:04.943Z,31.00
2018-07-03T13:43:34.031Z,30.70
2018-07-03T13:46:03.095Z,31.00
2018-07-03T13:48:32.081Z,31.00
2018-07-03T13:51:01.133Z,31.30
2018-07-03T13:53:30.152Z,30.70
2018-07-03T13:55:59.247Z,30.80
2018-07-03T13:58:28.642Z,30.80
2018-07-03T14:00:57.658Z,30.90
2018-07-03T14:03:26.704Z,30.30
2018-07-03T14:05:55.951Z,30.20
2018-07-03T14:08:25.521Z,30.30
2018-07-03T14:10:54.561Z,29.90
2018-07-03T14:13:23.584Z,30.50
2018-07-03T14:15:52.692Z,30.50
2018-07-03T14:18:26.924Z,30.00
2018-07-03T14:20:57.864Z,30.30
2018-07-03T14:23:27.681Z,29.60
2018-07-03T14:25:56.729Z,29.60
2018-07-03T14:28:25.751Z,29.70
2018-07-03T14:30:54.745Z,28.60
2018-07-03T14:33:23.791Z,28.40
2018-07-03T14:35:52.835Z,28.40
2018-07-03T14:38:21.868Z,29.40
2018-07-03T14:40:50.940Z,29.80
2018-07-03T14:43:20.000Z,30.90
2018-07-03T14:48:17.640Z,30.00
2018-07-03T14:50:46.705Z,30.40
2018-07-03T14:53:15.707Z,30.70
2018-07-03T14:55:44.764Z,29.70
2018-07-03T14:58:13.796Z,30.40
2018-07-03T15:00:42.932Z,30.50
2018-07-03T15:03:11.930Z,31.20
2018-07-03T15:05:40.971Z,31.50
2018-07-03T15:08:10.023Z,31.30
2018-07-03T15:10:39.092Z,31.40
2018-07-03T15:13:08.160Z,31.50
2018-07-03T15:15:37.213Z,30.60
2018-07-03T15:18:06.295Z,30.60
2018-07-03T15:20:35.297Z,29.70
2018-07-03T15:23:04.319Z,29.40
2018-07-03T15:25:33.372Z,29.90
2018-07-03T15:28:02.384Z,30.10
2018-07-03T15:30:31.457Z,30.20
2018-07-03T15:33:00.805Z,30.80
2018-07-03T15:37:58.449Z,30.90
2018-07-03T15:40:27.482Z,30.60
2018-07-03T15:42:56.502Z,29.70
2018-07-03T15:45:25.524Z,29.90
2018-07-03T15:47:54.567Z,29.60
2018-07-03T15:50:23.764Z,27.70
2018-07-03T15:52:52.766Z,27.80
2018-07-03T15:55:21.773Z,27.80
2018-07-03T15:57:50.807Z,28.70
2018-07-03T16:00:19.899Z,28.30
2018-07-03T16:03:00.064Z,28.60
2018-07-03T16:05:59.439Z,29.40
2018-07-03T16:08:47.863Z,29.70
2018-07-03T16:11:16.892Z,28.40
2018-07-03T16:13:45.905Z,28.50
2018-07-03T16:16:14.967Z,28.80
2018-07-03T16:18:44.007Z,28.10
2018-07-03T16:21:13.112Z,28.10
2018-07-03T16:23:42.381Z,28.30
2018-07-03T16:26:11.538Z,27.40
2018-07-03T16:28:40.610Z,27.30
2018-07-03T16:31:09.698Z,27.30
2018-07-03T16:33:38.953Z,27.60
2018-07-03T16:36:08.048Z,26.80
2018-07-03T16:38:37.089Z,27.10
2018-07-03T16:41:06.175Z,27.30
2018-07-03T16:43:35.280Z,27.40
2018-07-03T16:46:04.339Z,26.70
2018-07-03T16:48:33.363Z,26.70
2018-07-03T16:51:02.405Z,26.40
2018-07-03T16:53:35.763Z,27.70
2018-07-03T16:56:04.844Z,27.90
2018-07-03T16:58:33.927Z,27.80
2018-07-03T17:01:03.017Z,27.80
2018-07-03T17:03:32.039Z,28.00
2018-07-03T17:06:01.044Z,27.60
2018-07-03T17:08:30.083Z,27.40
2018-07-03T17:10:59.127Z,26.30
2018-07-03T17:13:28.183Z,26.20
2018-07-03T17:15:57.215Z,26.50
2018-07-03T17:18:26.251Z,26.40
2018-07-03T17:20:55.295Z,25.70
2018-07-03T17:23:24.349Z,25.60
2018-07-03T17:25:53.392Z,25.50
2018-07-03T17:28:22.472Z,25.40
2018-07-03T17:30:51.521Z,23.80
2018-07-03T17:33:20.545Z,23.50
2018-07-03T17:35:49.615Z,23.20
2018-07-03T17:38:18.680Z,23.00
2018-07-03T17:40:58.840Z,23.00
2018-07-03T17:44:10.596Z,23.00
2018-07-03T17:49:08.471Z,22.60
2018-07-03T17:51:37.516Z,22.60
2018-07-03T17:54:07.085Z,22.50
2018-07-03T17:56:36.215Z,22.50
2018-07-03T17:59:05.706Z,22.40
2018-07-03T18:04:03.384Z,22.20
2018-07-03T18:09:01.263Z,22.10
2018-07-03T18:19:01.749Z,21.90
2018-07-03T18:23:59.403Z,21.70
2018-07-03T18:28:57.083Z,21.70
2018-07-03T18:31:26.135Z,21.50
2018-07-03T18:33:55.217Z,21.40
2018-07-03T18:41:21.552Z,21.30
2018-07-03T19:01:11.480Z,20.60
2018-07-03T19:03:40.522Z,20.50
2018-07-03T19:06:09.559Z,20.50
2018-07-03T19:21:02.171Z,20.10
2018-07-03T19:28:29.541Z,19.90
2018-07-03T19:33:27.254Z,19.80
2018-07-03T19:40:53.541Z,19.50
2018-07-03T19:43:24.255Z,19.40
2018-07-03T19:45:53.869Z,19.30
2018-07-03T19:58:19.827Z,18.80
2018-07-03T20:03:18.800Z,18.90
2018-07-03T20:08:16.679Z,18.70
2018-07-03T20:10:45.725Z,18.60
2018-07-03T20:13:16.185Z,18.60
2018-07-03T20:15:45.285Z,18.50
2018-07-03T20:18:15.009Z,18.50
2018-07-03T20:20:44.164Z,18.50
2018-07-03T20:23:13.265Z,18.40
2018-07-03T20:25:42.353Z,18.60
2018-07-03T20:28:11.452Z,18.30
2018-07-03T20:30:40.575Z,18.20
2018-07-03T20:33:09.661Z,18.20
2018-07-03T20:35:38.709Z,18.10
2018-07-03T20:38:08.018Z,18.00
2018-07-03T20:40:55.483Z,18.00
2018-07-03T20:43:25.521Z,18.00
2018-07-03T20:45:54.543Z,18.00
2018-07-03T20:48:24.468Z,18.00
2018-07-03T20:50:53.530Z,17.90
2018-07-03T20:53:22.590Z,17.90
2018-07-03T20:55:51.691Z,17.80
2018-07-03T20:58:20.870Z,17.30
2018-07-03T21:00:49.875Z,17.60
2018-07-03T21:03:18.903Z,17.50
2018-07-03T21:05:49.293Z,17.30
2018-07-03T21:08:18.423Z,17.30
2018-07-03T21:10:47.733Z,17.30
2018-07-03T21:13:16.831Z,17.10
2018-07-03T21:18:14.698Z,17.10
2018-07-03T21:20:44.386Z,17.00
2018-07-03T21:23:13.422Z,17.00
2018-07-03T21:25:42.501Z,16.80
2018-07-03T21:28:11.525Z,16.50
2018-07-03T21:30:40.611Z,16.70
2018-07-03T21:33:09.685Z,16.70
2018-07-03T21:35:38.738Z,16.60
2018-07-03T21:38:07.777Z,16.50
2018-07-03T21:40:36.789Z,16.40
2018-07-03T21:43:05.843Z,16.60
2018-07-03T21:50:32.100Z,16.40
2018-07-03T21:53:01.120Z,16.30
2018-07-03T21:55:30.202Z,16.30
2018-07-03T22:00:39.247Z,16.10
2018-07-03T22:03:09.367Z,16.10
2018-07-03T22:05:39.380Z,16.10
2018-07-03T22:08:08.383Z,16.10
2018-07-03T22:10:37.390Z,16.10
2018-07-03T22:13:06.410Z,16.00
2018-07-03T22:15:35.430Z,16.10
2018-07-03T22:18:04.664Z,16.00
2018-07-03T22:20:33.657Z,16.00
2018-07-03T22:23:02.655Z,15.90
2018-07-03T22:25:31.654Z,15.90
2018-07-03T22:28:00.722Z,15.80
2018-07-03T22:30:29.780Z,15.80
2018-07-03T22:32:58.788Z,15.80
2018-07-03T22:35:27.802Z,15.80
2018-07-03T22:37:56.818Z,15.70
2018-07-03T22:40:25.832Z,15.60
2018-07-03T22:42:54.880Z,15.60
2018-07-03T22:45:23.879Z,15.60
2018-07-03T22:47:53.343Z,15.60
2018-07-03T22:50:22.380Z,15.60
2018-07-03T22:52:51.599Z,15.50
2018-07-03T22:57:49.387Z,15.50
2018-07-03T23:00:18.548Z,15.50
2018-07-03T23:05:16.702Z,15.50
2018-07-03T23:07:45.729Z,15.40
2018-07-03T23:10:14.750Z,15.60
2018-07-03T23:15:12.384Z,15.60
2018-07-03T23:17:41.450Z,15.50
2018-07-03T23:20:10.494Z,15.50
2018-07-03T23:22:39.490Z,15.40
2018-07-03T23:25:08.531Z,15.50
2018-07-03T23:27:37.532Z,15.40
2018-07-03T23:32:35.215Z,15.20
2018-07-03T23:35:04.272Z,15.20
2018-07-03T23:37:33.402Z,15.10
2018-07-03T23:40:02.455Z,15.10
2018-07-03T23:42:32.003Z,15.10
2018-07-03T23:47:41.191Z,15.00
2018-07-03T23:50:21.448Z,15.00
2018-07-03T23:53:01.628Z,14.90
2018-07-03T23:55:41.818Z,14.90
2018-07-03T23:58:22.155Z,14.90
